Time;durP1;ratioP1;P1;durP2;ratioP2;P2;SDS_P1;SDS_P2;PMS_P1;PMS_P2;Temp;Humidity;BMP_temperature;BMP_pressure;BME280_temperature;BME280_humidity;BME280_pressure;Samples;Min_cycle;Max_cycle;Signal;HPM_P1;HPM_P2
2022/08/07 00:01:43;;;;;;;7.05;1.50;;;;;;;15.90;45.48;101696.76;1688243;83;98611;-66
2022/08/07 00:04:09;;;;;;;10.55;2.05;;;;;;;15.89;45.59;101696.84;1706253;81;27412;-66
2022/08/07 00:06:36;;;;;;;5.03;1.27;;;;;;;15.88;45.64;101693.73;1688063;84;27235;-66
2022/08/07 00:09:03;;;;;;;7.97;1.90;;;;;;;15.85;45.71;101694.76;1686820;84;98461;-66
2022/08/07 00:11:29;;;;;;;9.48;1.10;;;;;;;15.83;45.78;101700.72;1679097;83;26221;-66
2022/08/07 00:13:56;;;;;;;4.70;1.55;;;;;;;15.81;45.85;101703.97;1715097;81;98709;-66
2022/08/07 00:16:22;;;;;;;3.77;1.45;;;;;;;15.79;45.92;101705.87;1711623;82;27380;-66
2022/08/07 00:18:48;;;;;;;5.30;1.50;;;;;;;15.76;45.99;101703.78;1715113;81;98956;-67
2022/08/07 00:21:14;;;;;;;6.72;1.75;;;;;;;15.75;46.09;101704.73;1687648;83;25788;-66
2022/08/07 00:23:42;;;;;;;5.87;1.42;;;;;;;15.71;46.16;101697.72;1701830;82;55253;-66
2022/08/07 00:26:10;;;;;;;2.80;1.40;;;;;;;15.68;46.23;101705.98;1699679;83;98753;-66
2022/08/07 00:28:36;;;;;;;6.87;1.75;;;;;;;15.66;46.29;101711.45;1719019;81;28054;-66
2022/08/07 00:31:09;;;;;;;5.08;2.05;;;;;;;15.63;46.39;101706.20;1713144;82;98865;-68
2022/08/07 00:33:38;;;;;;;8.43;1.50;;;;;;;15.62;46.47;101705.80;1719552;82;26439;-67
2022/08/07 00:36:05;;;;;;;8.63;2.17;;;;;;;15.61;46.53;101708.09;1709165;81;26414;-66
2022/08/07 00:38:32;;;;;;;4.58;1.32;;;;;;;15.59;46.63;101701.92;1717904;81;98686;-66
2022/08/07 00:41:00;;;;;;;5.00;1.22;;;;;;;15.57;46.69;101706.52;1683510;83;27369;-66
2022/08/07 00:43:26;;;;;;;9.38;1.65;;;;;;;15.54;46.77;101708.86;1714700;82;99408;-66
2022/08/07 00:45:52;;;;;;;8.13;1.72;;;;;;;15.52;46.86;101705.83;1712546;81;25755;-66
2022/08/07 00:48:18;;;;;;;5.65;1.50;;;;;;;15.46;46.88;101706.99;1679152;83;25884;-66
2022/08/07 00:50:44;;;;;;;5.37;1.60;;;;;;;15.44;47.02;101708.02;1717021;82;98753;-66
2022/08/07 00:53:10;;;;;;;3.17;1.70;;;;;;;15.42;47.12;101712.61;1718170;81;27492;-66
2022/08/07 00:55:36;;;;;;;2.70;1.02;;;;;;;15.39;47.18;101708.23;1710325;82;98688;-66
2022/08/07 00:58:02;;;;;;;4.70;1.20;;;;;;;15.36;47.26;101707.48;1715675;82;26778;-66
2022/08/07 01:00:28;;;;;;;5.28;1.45;;;;;;;15.34;47.36;101709.39;1718592;82;25816;-66
2022/08/07 01:02:54;;;;;;;5.08;1.92;;;;;;;15.31;47.48;101711.75;1715192;82;98672;-66
2022/08/07 01:05:21;;;;;;;6.33;1.30;;;;;;;15.28;47.50;101711.89;1688449;84;27436;-66
2022/08/07 01:07:47;;;;;;;10.00;1.57;;;;;;;15.23;47.55;101707.17;1717066;82;98589;-66
2022/08/07 01:10:14;;;;;;;7.90;2.47;;;;;;;15.19;47.66;101709.61;1688103;83;25718;-66
2022/08/07 01:12:41;;;;;;;3.58;1.40;;;;;;;15.16;47.74;101708.41;1718473;82;26293;-66
2022/08/07 01:15:09;;;;;;;3.95;1.67;;;;;;;15.13;47.88;101706.72;1717092;81;97703;-66
2022/08/07 01:17:35;;;;;;;7.75;2.30;;;;;;;15.09;47.94;101703.75;1687533;84;27420;-66
2022/08/07 01:20:09;;;;;;;9.73;2.20;;;;;;;15.06;47.99;101706.59;1715913;82;98656;-66
2022/08/07 01:22:38;;;;;;;13.62;2.55;;;;;;;15.01;48.04;101705.92;1717702;82;26588;-66
2022/08/07 01:25:07;;;;;;;9.73;1.57;;;;;;;14.94;48.16;101706.67;1716113;82;99170;-66
2022/08/07 01:27:33;;;;;;;3.35;1.87;;;;;;;14.90;48.24;101702.83;1719507;81;25779;-68
2022/08/07 01:30:00;;;;;;;5.08;1.70;;;;;;;14.85;48.37;101709.77;1718458;82;27504;-65
2022/08/07 01:32:27;;;;;;;5.55;1.52;;;;;;;14.84;48.47;101713.89;1711526;81;98654;-67
2022/08/07 01:34:53;;;;;;;5.55;1.70;;;;;;;14.80;48.48;101709.57;1718356;82;25811;-67
2022/08/07 01:37:19;;;;;;;9.35;1.30;;;;;;;14.78;48.62;101708.77;1716582;81;98815;-67
2022/08/07 01:39:46;;;;;;;10.63;1.72;;;;;;;14.77;48.63;101707.01;1689638;83;25794;-67
2022/08/07 01:42:14;;;;;;;7.20;1.92;;;;;;;14.74;48.77;101703.09;1701819;82;27450;-67
2022/08/07 01:44:41;;;;;;;2.92;1.47;;;;;;;14.72;48.83;101699.59;1688368;83;98800;-67
2022/08/07 01:47:08;;;;;;;5.72;1.60;;;;;;;14.69;48.90;101701.06;1699106;82;25946;-67
2022/08/07 01:49:36;;;;;;;6.53;1.77;;;;;;;14.66;48.94;101698.03;1697611;82;98873;-68
2022/08/07 01:52:04;;;;;;;3.60;1.32;;;;;;;14.61;49.03;101703.63;1699131;82;26440;-67
2022/08/07 01:54:39;;;;;;;7.42;1.55;;;;;;;14.57;49.11;101702.48;1697427;83;28325;-67
2022/08/07 01:57:20;;;;;;;4.97;1.77;;;;;;;14.53;49.29;101701.73;1667866;84;98632;-67
2022/08/07 01:59:51;;;;;;;3.47;1.57;;;;;;;14.49;49.36;101700.11;1691660;83;25840;-67
2022/08/07 02:02:31;;;;;;;6.53;1.70;;;;;;;14.44;49.46;101708.87;1671321;84;98731;-67
2022/08/07 02:05:10;;;;;;;7.15;1.75;;;;;;;14.41;49.58;101700.88;1702706;82;26418;-67
2022/08/07 02:07:47;;;;;;;4.42;1.90;;;;;;;14.40;49.67;101705.86;1698875;82;98831;-67
2022/08/07 02:10:15;;;;;;;5.03;1.57;;;;;;;14.38;49.76;101704.17;1699822;83;25774;-67
2022/08/07 02:12:44;;;;;;;6.75;3.25;;;;;;;14.34;49.88;101710.16;1699687;82;26645;-67
2022/08/07 02:15:13;;;;;;;4.90;2.60;;;;;;;14.29;49.99;101709.01;1675924;83;98440;-67
2022/08/07 02:17:41;;;;;;;7.60;2.02;;;;;;;14.24;50.13;101707.44;1671880;84;26311;-67
2022/08/07 02:20:09;;;;;;;7.15;2.17;;;;;;;14.21;50.28;101711.62;1698128;82;98883;-67
2022/08/07 02:22:39;;;;;;;11.00;2.12;;;;;;;14.17;50.37;101708.17;1700858;83;25821;-67
2022/08/07 02:25:08;;;;;;;5.80;1.70;;;;;;;14.13;50.48;101707.89;1701998;82;99271;-67
2022/08/07 02:27:36;;;;;;;6.90;2.22;;;;;;;14.11;50.62;101708.89;1700375;82;26352;-66
2022/08/07 02:30:05;;;;;;;4.40;1.75;;;;;;;14.09;50.77;101712.13;1701665;82;25769;-66
2022/08/07 02:32:35;;;;;;;5.55;2.12;;;;;;;14.06;50.88;101714.94;1699134;82;98592;-67
2022/08/07 02:35:03;;;;;;;6.87;2.55;;;;;;;14.03;51.00;101713.72;1679261;84;25887;-67
2022/08/07 02:37:33;;;;;;;8.68;2.35;;;;;;;13.99;51.14;101714.31;1693346;83;98098;-67
2022/08/07 02:40:01;;;;;;;11.78;2.70;;;;;;;13.96;51.27;101715.78;1708256;81;27150;-67
2022/08/07 02:42:30;;;;;;;10.85;2.37;;;;;;;13.93;51.40;101717.25;1710012;82;25844;-68
2022/08/07 02:44:59;;;;;;;7.95;2.85;;;;;;;13.90;51.52;101721.42;1703853;82;99120;-67
2022/08/07 02:47:25;;;;;;;6.28;2.15;;;;;;;13.86;51.66;101719.78;1710526;82;26368;-67
2022/08/07 02:49:52;;;;;;;8.63;2.25;;;;;;;13.83;51.78;101722.60;1714485;81;99162;-67
2022/08/07 02:52:38;;;;;;;4.45;1.92;;;;;;;13.79;51.97;101720.50;1742180;81;25823;-67
2022/08/07 02:55:11;;;;;;;11.12;2.62;;;;;;;13.78;52.12;101725.48;1705236;82;98917;-66
2022/08/07 02:57:39;;;;;;;7.75;2.42;;;;;;;13.76;52.30;101722.44;1711485;81;27410;-66
2022/08/07 03:00:07;;;;;;;12.07;2.62;;;;;;;13.74;52.45;101725.19;1706196;82;27176;-66
2022/08/07 03:02:36;;;;;;;9.35;3.25;;;;;;;13.73;52.57;101722.56;1731766;81;98792;-66
2022/08/07 03:05:05;;;;;;;7.45;2.70;;;;;;;13.70;52.69;101727.59;1738100;81;25788;-67
2022/08/07 03:07:32;;;;;;;6.90;3.12;;;;;;;13.67;52.85;101721.45;1738949;80;98867;-66
2022/08/07 03:09:58;;;;;;;7.83;2.55;;;;;;;13.65;53.01;101724.20;1736294;81;27635;-66
2022/08/07 03:12:25;;;;;;;8.58;3.30;;;;;;;13.61;53.22;101729.30;1735147;81;26513;-66
2022/08/07 03:14:55;;;;;;;6.37;2.58;;;;;;;13.60;53.36;101731.58;1728392;81;99218;-66
2022/08/07 03:17:22;;;;;;;6.65;2.65;;;;;;;13.59;53.55;101723.09;1706619;82;25837;-66
2022/08/07 03:19:49;;;;;;;6.67;2.37;;;;;;;13.58;53.72;101722.22;1707241;81;99069;-66
2022/08/07 03:22:17;;;;;;;10.85;3.33;;;;;;;13.57;53.75;101723.62;1709220;82;27465;-66
2022/08/07 03:24:44;;;;;;;14.90;2.83;;;;;;;13.55;53.90;101730.41;1705201;82;25746;-66
2022/08/07 03:27:10;;;;;;;6.60;2.30;;;;;;;13.53;54.07;101724.20;1726336;81;98629;-66
2022/08/07 03:29:40;;;;;;;9.23;2.70;;;;;;;13.54;54.25;101721.05;1727074;81;26441;-65
2022/08/07 03:32:10;;;;;;;3.50;2.45;;;;;;;13.54;54.34;101721.92;1729967;81;98787;-66
2022/08/07 03:34:38;;;;;;;4.90;2.83;;;;;;;13.53;54.47;101719.29;1734240;81;27364;-65
2022/08/07 03:37:07;;;;;;;6.40;2.47;;;;;;;13.53;54.58;101721.98;1725576;81;98972;-66
2022/08/07 03:39:35;;;;;;;3.02;2.30;;;;;;;13.52;54.72;101716.19;1725974;81;26519;-67
2022/08/07 03:42:04;;;;;;;9.43;3.33;;;;;;;13.53;54.82;101719.29;1733919;81;25711;-66
2022/08/07 03:44:33;;;;;;;4.60;2.42;;;;;;;13.54;54.91;101721.92;1726290;81;98690;-65
2022/08/07 03:47:01;;;;;;;8.68;2.52;;;;;;;13.55;55.02;101721.45;1707330;81;28227;-65
2022/08/07 03:49:28;;;;;;;8.10;2.55;;;;;;;13.55;55.12;101724.15;1697981;83;98823;-66
2022/08/07 03:51:56;;;;;;;11.78;2.98;;;;;;;13.56;55.22;101724.56;1697338;83;26408;-66
2022/08/07 03:54:22;;;;;;;6.33;2.40;;;;;;;13.57;55.31;101724.50;1726891;81;26471;-66
2022/08/07 03:56:50;;;;;;;16.42;2.92;;;;;;;13.59;55.35;101720.40;1732412;81;98653;-67
2022/08/07 03:59:17;;;;;;;7.85;2.92;;;;;;;13.58;55.45;101722.69;1709251;81;27618;-66
2022/08/07 04:01:45;;;;;;;8.65;2.77;;;;;;;13.57;55.53;101720.92;1738432;81;98623;-66
2022/08/07 04:04:11;;;;;;;8.38;2.47;;;;;;;13.59;55.64;101725.78;1728678;81;25845;-66
2022/08/07 04:06:42;;;;;;;9.60;2.70;;;;;;;13.63;55.69;101730.12;1724837;81;25784;-67
2022/08/07 04:09:09;;;;;;;12.88;3.05;;;;;;;13.67;55.77;101727.72;1703173;83;98755;-66
2022/08/07 04:11:37;;;;;;;8.80;2.90;;;;;;;13.69;55.82;101729.88;1723275;81;28017;-66
2022/08/07 04:14:04;;;;;;;14.00;3.00;;;;;;;13.72;55.88;101731.58;1724054;81;98737;-66
2022/08/07 04:16:30;;;;;;;9.80;3.42;;;;;;;13.74;55.97;101723.84;1726618;81;25725;-66
2022/08/07 04:18:56;;;;;;;16.55;4.00;;;;;;;13.77;55.99;101727.77;1729684;81;98762;-68
2022/08/07 04:21:23;;;;;;;8.93;3.47;;;;;;;13.79;56.06;101728.58;1727653;81;26147;-65
2022/08/07 04:23:50;;;;;;;8.60;3.50;;;;;;;13.82;56.15;101723.54;1732581;81;30603;-65
2022/08/07 04:26:16;;;;;;;11.60;2.58;;;;;;;13.85;56.18;101726.11;1698449;83;98662;-65
2022/08/07 04:28:43;;;;;;;11.10;2.90;;;;;;;13.88;56.20;101728.69;1732651;81;25304;-65
2022/08/07 04:31:10;;;;;;;11.33;3.20;;;;;;;13.93;56.24;101726.69;1730037;81;99148;-66
2022/08/07 04:33:37;;;;;;;11.68;2.87;;;;;;;13.97;56.23;101731.89;1720719;81;25719;-66
2022/08/07 04:36:07;;;;;;;19.37;3.10;;;;;;;14.02;56.24;101727.66;1704730;82;28136;-66
2022/08/07 04:38:34;;;;;;;10.35;2.80;;;;;;;14.05;56.24;101733.41;1727782;81;98867;-66
2022/08/07 04:41:00;;;;;;;19.00;3.17;;;;;;;14.08;56.26;101731.93;1732129;81;25966;-66
2022/08/07 04:43:31;;;;;;;14.53;2.85;;;;;;;14.13;56.31;101733.97;1734808;81;99238;-66
2022/08/07 04:46:23;;;;;;;7.33;3.02;;;;;;;14.18;56.29;101736.02;1715319;82;25762;-66
2022/08/07 04:48:55;;;;;;;12.40;3.00;;;;;;;14.20;56.30;101732.31;1714344;81;99146;-66
2022/08/07 04:51:29;;;;;;;8.35;2.80;;;;;;;14.24;56.29;101737.11;1715129;82;25876;-66
2022/08/07 04:54:36;;;;;;;12.25;2.80;;;;;;;14.28;56.28;101741.44;1735202;81;25795;-66
2022/08/07 04:57:14;;;;;;;9.60;3.45;;;;;;;14.31;56.25;101742.66;1731461;81;98811;-65
2022/08/07 05:00:01;;;;;;;6.08;2.87;;;;;;;14.36;56.22;101740.64;1736183;81;25342;-65
2022/08/07 05:02:35;;;;;;;12.05;2.75;;;;;;;14.40;56.19;101744.97;1734078;81;98516;-65
2022/08/07 05:05:17;;;;;;;6.60;3.00;;;;;;;14.44;56.17;101740.36;1714646;81;25994;-68
2022/08/07 05:07:59;;;;;;;5.70;2.08;;;;;;;14.46;56.14;101733.95;1734396;81;98729;-65
2022/08/07 05:10:39;;;;;;;;;;;;;;;14.50;56.15;101741.45;1746056;81;26406;-66
2022/08/07 05:13:25;;;;;;;14.80;2.75;;;;;;;14.55;56.20;101744.36;1726866;81;84324;-65
2022/08/07 05:15:53;;;;;;;14.78;2.83;;;;;;;14.59;56.11;101745.11;1726344;81;27466;-66
2022/08/07 05:18:28;;;;;;;7.55;2.62;;;;;;;14.64;56.08;101744.44;1712304;82;26163;-65
2022/08/07 05:20:59;;;;;;;19.05;2.95;;;;;;;14.72;56.03;101744.11;1733999;81;98698;-66
2022/08/07 05:23:42;;;;;;;8.60;2.80;;;;;;;14.78;56.01;101741.15;1739163;81;25790;-66
2022/08/07 05:26:21;;;;;;;14.40;2.65;;;;;;;14.84;55.98;101742.23;1723480;81;98793;-66
2022/08/07 05:28:51;;;;;;;7.42;2.33;;;;;;;14.90;55.95;101736.09;1737134;81;27436;-65
2022/08/07 05:31:20;;;;;;;6.67;2.22;;;;;;;14.98;55.94;101742.50;1732179;81;98954;-67
2022/08/07 05:33:50;;;;;;;12.75;2.67;;;;;;;15.04;55.91;101742.23;1736317;81;25793;-65
2022/08/07 05:36:18;;;;;;;4.33;1.72;;;;;;;15.13;55.90;101740.47;1727605;81;25758;-66
2022/08/07 05:38:44;;;;;;;8.43;2.10;;;;;;;15.21;55.88;101738.78;1731345;81;98742;-65
2022/08/07 05:41:11;;;;;;;10.70;2.35;;;;;;;15.29;55.86;101734.38;1734910;81;27785;-66
2022/08/07 05:43:39;;;;;;;5.58;2.27;;;;;;;15.37;55.87;101733.55;1726452;81;99160;-66
2022/08/07 05:46:05;;;;;;;6.42;2.45;;;;;;;15.45;55.83;101736.31;1732602;81;26329;-66
2022/08/07 05:48:32;;;;;;;5.25;2.45;;;;;;;15.54;55.81;101738.59;1722356;81;26511;-66
2022/08/07 05:51:00;;;;;;;8.20;1.85;;;;;;;15.62;55.77;101742.75;1721453;81;98616;-66
2022/08/07 05:53:27;;;;;;;16.52;2.92;;;;;;;15.71;55.75;101744.55;1723967;81;27397;-66
2022/08/07 05:55:54;;;;;;;2.35;1.75;;;;;;;15.81;55.67;101750.40;1733649;81;98756;-66
2022/08/07 05:58:23;;;;;;;7.95;2.20;;;;;;;15.87;55.60;101748.75;1693962;83;25600;-67
2022/08/07 06:00:50;;;;;;;9.85;2.05;;;;;;;15.93;55.54;101747.11;1723498;81;98916;-67
2022/08/07 06:03:19;;;;;;;8.43;1.80;;;;;;;16.03;55.47;101752.48;1725878;81;25878;-67
2022/08/07 06:05:46;;;;;;;6.10;1.60;;;;;;;16.08;55.38;101753.61;1729779;81;27378;-67
2022/08/07 06:08:15;;;;;;;3.83;1.60;;;;;;;16.13;55.29;101746.14;1725757;81;98721;-67
2022/08/07 06:10:42;;;;;;;11.35;1.87;;;;;;;16.16;55.26;101744.16;1700658;83;25809;-68
2022/08/07 06:13:09;;;;;;;10.13;1.85;;;;;;;16.23;55.17;101743.39;1727994;81;98950;-67
2022/08/07 06:15:35;;;;;;;3.20;1.75;;;;;;;16.30;55.09;101743.48;1723761;81;25898;-68
2022/08/07 06:18:02;;;;;;;11.55;2.17;;;;;;;16.38;54.95;101741.75;1726546;81;27470;-66
2022/08/07 06:20:30;;;;;;;8.93;2.05;;;;;;;16.46;54.78;101742.24;1722681;81;98997;-65
2022/08/07 06:22:58;;;;;;;6.35;1.95;;;;;;;16.53;54.69;101747.27;1722450;81;25726;-65
2022/08/07 06:25:24;;;;;;;10.00;2.10;;;;;;;16.60;54.50;101739.71;1722621;81;98884;-65
2022/08/07 06:27:50;;;;;;;6.60;1.60;;;;;;;16.67;54.35;101741.19;1700391;83;25829;-65
2022/08/07 06:30:17;;;;;;;3.77;1.55;;;;;;;16.73;54.21;101742.70;1697279;82;27487;-64
2022/08/07 06:32:43;;;;;;;13.38;1.60;;;;;;;16.78;54.08;101742.86;1688881;83;98746;-64
2022/08/07 06:35:09;;;;;;;5.92;1.45;;;;;;;16.83;53.94;101745.33;1726450;81;25730;-64
2022/08/07 06:37:37;;;;;;;2.00;1.42;;;;;;;16.88;53.74;101745.97;1728659;81;99092;-64
2022/08/07 06:40:04;;;;;;;3.37;1.52;;;;;;;16.90;53.62;101749.95;1724661;81;25514;-63
2022/08/07 06:42:36;;;;;;;5.05;2.08;;;;;;;16.95;53.52;101753.30;1704496;82;27573;-64
2022/08/07 06:45:06;;;;;;;2.90;1.32;;;;;;;16.99;53.36;101747.64;1702335;82;98721;-64
2022/08/07 06:47:32;;;;;;;7.20;2.10;;;;;;;17.01;53.22;101756.56;1729738;81;25869;-65
2022/08/07 06:49:58;;;;;;;8.53;1.90;;;;;;;17.07;53.10;101759.42;1738412;81;98821;-64
2022/08/07 06:52:30;;;;;;;3.17;2.08;;;;;;;17.13;53.02;101759.98;1710830;82;25849;-64
2022/08/07 06:54:57;;;;;;;4.65;2.22;;;;;;;17.20;52.89;101759.17;1710655;81;98799;-64
2022/08/07 06:57:25;;;;;;;5.58;1.70;;;;;;;17.27;52.83;101761.08;1705493;82;25951;-64
2022/08/07 06:59:52;;;;;;;12.85;2.00;;;;;;;17.36;52.73;101763.30;1708163;81;26489;-64
2022/08/07 07:02:21;;;;;;;4.03;1.90;;;;;;;17.41;52.61;101757.15;1706497;81;98948;-67
2022/08/07 07:04:47;;;;;;;9.20;2.50;;;;;;;17.47;52.58;101755.45;1723298;81;25921;-64
2022/08/07 07:07:14;;;;;;;6.97;2.10;;;;;;;17.57;52.51;101759.90;1729473;81;98923;-64
2022/08/07 07:09:46;;;;;;;9.00;2.87;;;;;;;17.62;52.45;101756.45;1740381;81;25962;-65
2022/08/07 07:12:40;;;;;;;8.05;2.17;;;;;;;17.68;52.43;101761.09;1741831;81;26301;-65
2022/08/07 07:15:14;;;;;;;3.15;1.90;;;;;;;17.72;52.33;101758.61;1729411;81;98484;-65
2022/08/07 07:18:00;;;;;;;5.97;2.00;;;;;;;17.70;52.26;101759.17;1734514;81;25812;-64
2022/08/07 07:20:37;;;;;;;5.47;3.05;;;;;;;17.74;52.24;101763.95;1735078;81;98594;-65
2022/08/07 07:23:05;;;;;;;4.25;2.00;;;;;;;17.77;52.20;101747.50;1746288;81;25922;-65
2022/08/07 07:25:34;;;;;;;4.80;2.10;;;;;;;17.87;52.18;101749.22;1716768;81;98885;-64
2022/08/07 07:28:11;;;;;;;6.75;2.30;;;;;;;17.97;52.03;101749.09;1705652;82;26450;-64
2022/08/07 07:30:41;;;;;;;4.83;2.50;;;;;;;18.03;52.00;101744.69;1735319;81;26551;-64
2022/08/07 07:33:10;;;;;;;3.20;2.10;;;;;;;18.05;51.77;101745.47;1732307;81;98423;-64
2022/08/07 07:35:38;;;;;;;5.25;2.00;;;;;;;18.07;51.83;101747.13;1739271;81;25783;-65
2022/08/07 07:38:07;;;;;;;7.05;2.65;;;;;;;18.20;51.81;101743.72;1740588;81;99114;-64
2022/08/07 07:40:36;;;;;;;4.22;2.25;;;;;;;18.31;51.63;101743.45;1717088;82;26334;-65
2022/08/07 07:43:04;;;;;;;3.58;2.30;;;;;;;18.41;51.53;101740.59;1735635;81;99222;-64
2022/08/07 07:45:31;;;;;;;5.20;2.15;;;;;;;18.49;51.32;101744.22;1699201;82;28127;-65
2022/08/07 07:47:59;;;;;;;5.37;2.40;;;;;;;18.44;51.07;101740.41;1734276;81;25804;-64
2022/08/07 07:50:27;;;;;;;3.27;2.25;;;;;;;18.41;50.95;101737.01;1735418;81;98523;-65
2022/08/07 07:52:54;;;;;;;3.52;2.17;;;;;;;18.41;50.90;101739.23;1710061;82;26409;-64
2022/08/07 07:55:21;;;;;;;3.02;1.90;;;;;;;18.43;50.82;101733.23;1732043;81;98826;-65
2022/08/07 07:57:49;;;;;;;2.52;2.33;;;;;;;18.54;50.67;101729.89;1720333;81;27329;-65
2022/08/07 08:00:17;;;;;;;2.87;2.17;;;;;;;18.62;50.59;101731.70;1703608;82;25874;-64
2022/08/07 08:02:46;;;;;;;5.22;2.15;;;;;;;18.70;50.37;101738.03;1699373;82;98724;-65
2022/08/07 08:05:16;;;;;;;4.78;1.92;;;;;;;18.68;50.16;101733.17;1734027;81;26444;-64
2022/08/07 08:07:44;;;;;;;2.55;1.92;;;;;;;18.64;50.08;101734.32;1734743;81;97804;-65
2022/08/07 08:10:11;;;;;;;4.30;2.10;;;;;;;18.68;50.08;101727.25;1717965;81;27392;-64
2022/08/07 08:12:38;;;;;;;4.42;1.80;;;;;;;18.81;50.03;101728.75;1723908;81;25782;-64
2022/08/07 08:15:06;;;;;;;2.25;1.90;;;;;;;18.96;49.93;101725.59;1745094;81;98476;-64
2022/08/07 08:17:34;;;;;;;5.92;2.02;;;;;;;18.99;49.67;101725.39;1726935;81;25816;-64
2022/08/07 08:20:09;;;;;;;2.65;1.72;;;;;;;18.97;49.50;101721.42;1727982;81;98626;-64
2022/08/07 08:28:16;;;;;;;4.72;1.80;;;;;;;19.12;49.01;101714.16;1732003;81;26075;-64
2022/08/07 08:30:44;;;;;;;3.35;2.10;;;;;;;19.24;48.13;101723.39;1725612;81;25807;-66
2022/08/07 08:33:15;;;;;;;3.55;1.30;;;;;;;19.22;47.93;101722.62;1729540;81;98547;-65
2022/08/07 08:35:43;;;;;;;5.75;1.42;;;;;;;19.21;47.59;101720.87;1727322;81;27468;-67
2022/08/07 08:38:12;;;;;;;5.00;1.30;;;;;;;19.21;47.39;101722.23;1731706;81;99124;-65
2022/08/07 08:40:50;;;;;;;4.97;1.45;;;;;;;19.21;47.25;101726.30;1726805;81;26278;-64
2022/08/07 08:43:36;;;;;;;7.08;1.30;;;;;;;19.25;47.14;101725.14;1727081;81;98917;-64
2022/08/07 08:46:36;;;;;;;3.85;1.25;;;;;;;19.26;46.89;101720.97;1697572;83;25925;-66
2022/08/07 08:49:40;;;;;;;3.92;1.40;;;;;;;19.26;46.71;101718.25;1721056;80;99209;-65
2022/08/07 08:52:21;;;;;;;4.42;1.45;;;;;;;19.27;46.65;101724.08;1726504;81;25327;-64
2022/08/07 08:55:15;;;;;;;1.92;1.40;;;;;;;19.26;46.46;101722.33;1732940;81;25933;-65
2022/08/07 08:57:49;;;;;;;5.55;1.50;;;;;;;19.32;46.44;101715.15;1719803;81;26309;-65
2022/08/07 09:00:17;;;;;;;3.72;1.22;;;;;;;19.50;46.31;101722.63;1695897;83;25723;-65
2022/08/07 09:03:03;;;;;;;4.47;1.37;;;;;;;19.58;46.04;101723.05;1730584;81;98696;-65
2022/08/07 09:05:52;;;;;;;3.42;1.70;;;;;;;19.64;45.92;101716.34;1725099;81;26009;-65
2022/08/07 09:08:35;;;;;;;2.42;1.87;;;;;;;19.76;45.76;101719.14;1734498;81;98711;-65
2022/08/07 09:11:16;;;;;;;3.72;1.37;;;;;;;19.88;45.64;101716.11;1721706;81;25750;-65
2022/08/07 09:14:21;;;;;;;;;;;;;;;20.05;45.61;101706.36;1669251;82;98938;-65
2022/08/07 09:17:09;;;;;;;2.92;1.30;;;;;;;20.22;45.38;101702.52;1698054;82;28030;-65
2022/08/07 09:19:56;;;;;;;2.42;1.27;;;;;;;20.29;45.11;101703.84;1693858;82;98885;-65
2022/08/07 09:23:03;;;;;;;3.47;1.75;;;;;;;20.24;44.90;101700.56;1727746;81;25930;-66
2022/08/07 09:25:34;;;;;;;5.15;2.22;;;;;;;20.20;44.29;101692.21;1736333;81;98804;-67
2022/08/07 09:28:06;;;;;;;3.58;1.90;;;;;;;20.20;44.29;101692.21;1726416;81;25797;-64
2022/08/07 09:31:02;;;;;;;3.22;1.60;;;;;;;20.08;44.12;101688.46;1728268;81;27460;-65
2022/08/07 09:33:53;;;;;;;4.67;1.80;;;;;;;20.08;44.12;101688.46;1722673;81;98635;-64
2022/08/07 09:36:40;;;;;;;3.00;1.62;;;;;;;20.10;43.61;101689.72;1726258;81;26383;-65
2022/08/07 09:39:49;;;;;;;3.12;2.12;;;;;;;20.09;43.47;101693.42;1685510;83;98667;-65
2022/08/07 09:42:35;;;;;;;3.62;1.80;;;;;;;20.06;43.33;101684.97;1728756;81;26502;-66
2022/08/07 09:45:21;;;;;;;4.87;1.57;;;;;;;20.08;43.28;101687.59;1731680;81;98658;-66
2022/08/07 09:48:16;;;;;;;3.17;1.80;;;;;;;20.22;43.30;101677.14;1727712;81;26008;-66
2022/08/07 09:51:08;;;;;;;4.42;1.47;;;;;;;20.33;42.95;101671.84;1727038;81;98734;-66
2022/08/07 09:53:37;;;;;;;4.10;1.70;;;;;;;20.33;42.59;101669.12;1733638;81;25787;-66
2022/08/07 09:56:09;;;;;;;2.47;1.47;;;;;;;20.35;42.59;101672.12;1724050;81;98639;-66
2022/08/07 09:58:55;;;;;;;2.75;1.75;;;;;;;20.35;42.59;101672.12;1734488;81;27447;-65
2022/08/07 10:01:51;;;;;;;5.85;1.52;;;;;;;20.44;42.55;101665.70;1727807;81;98960;-65
2022/08/07 10:04:48;;;;;;;7.55;1.75;;;;;;;20.51;41.86;101668.38;1725724;81;26481;-65
2022/08/07 10:07:57;;;;;;;6.20;1.92;;;;;;;20.58;41.94;101663.77;1706986;81;98892;-67
2022/08/07 10:10:47;;;;;;;4.28;1.55;;;;;;;20.58;41.94;101663.77;1698996;82;25852;-66
2022/08/07 10:13:37;;;;;;;9.08;1.82;;;;;;;20.61;41.51;101664.92;1690532;83;27285;-65
2022/08/07 10:16:23;;;;;;;5.67;1.20;;;;;;;20.66;41.57;101653.70;1725960;81;25868;-66
2022/08/07 10:19:02;;;;;;;3.02;1.65;;;;;;;20.91;40.63;101642.80;1727923;81;25672;-65
2022/08/07 10:21:57;;;;;;;6.92;1.77;;;;;;;21.00;40.97;101636.69;1707217;81;98836;-66
2022/08/07 10:24:46;;;;;;;1.82;1.40;;;;;;;21.00;40.97;101636.69;1727833;81;25971;-65
2022/08/07 10:27:47;;;;;;;2.77;1.60;;;;;;;21.16;41.09;101632.87;1701398;81;99232;-66
2022/08/07 10:30:33;;;;;;;4.10;1.40;;;;;;;21.40;41.08;101631.13;1698339;82;25481;-65
2022/08/07 10:33:17;;;;;;;2.92;1.40;;;;;;;21.65;40.72;101627.45;1718194;81;98732;-64
2022/08/07 10:36:14;;;;;;;1.75;1.20;;;;;;;21.78;40.20;101635.11;1722959;81;26169;-65
2022/08/07 10:39:24;;;;;;;4.22;2.40;;;;;;;21.68;39.71;101625.87;1697938;82;98662;-66
2022/08/07 10:42:39;;;;;;;2.40;1.22;;;;;;;21.50;39.61;101626.73;1725477;81;27520;-66
2022/08/07 10:45:22;;;;;;;5.25;1.40;;;;;;;21.46;39.30;101625.22;1723956;82;98713;-65
2022/08/07 10:48:17;;;;;;;1.40;1.30;;;;;;;21.37;39.26;101624.53;1727603;82;25839;-64
2022/08/07 10:51:08;;;;;;;1.27;1.17;;;;;;;21.33;39.04;101621.64;1716520;82;98708;-65
2022/08/07 10:54:04;;;;;;;2.70;1.32;;;;;;;21.11;38.70;101618.20;1725144;81;26345;-65
2022/08/07 10:57:14;;;;;;;6.42;1.60;;;;;;;21.06;38.92;101589.04;1717509;82;98686;-65
2022/08/07 11:00:06;;;;;;;3.90;1.47;;;;;;;21.27;38.16;101615.27;1720977;82;26106;-64
2022/08/07 11:02:55;;;;;;;2.30;1.47;;;;;;;21.35;38.49;101606.91;1715691;82;98720;-66
2022/08/07 11:05:41;;;;;;;5.17;1.27;;;;;;;21.56;38.66;101604.45;1722612;81;26608;-64
2022/08/07 11:08:25;;;;;;;3.20;1.80;;;;;;;21.86;38.71;101597.69;1696442;83;98894;-67
2022/08/07 11:11:32;;;;;;;3.55;1.80;;;;;;;22.07;38.49;101595.22;1722981;82;26907;-64
2022/08/07 11:14:25;;;;;;;5.85;1.40;;;;;;;22.20;38.36;101591.44;1722163;82;98774;-64
2022/08/07 11:17:08;;;;;;;4.97;1.30;;;;;;;22.40;38.30;101587.16;1728527;82;25728;-64
2022/08/07 11:19:43;;;;;;;3.55;1.40;;;;;;;22.54;38.12;101590.17;1716795;82;26370;-65
2022/08/07 11:22:26;;;;;;;3.10;1.40;;;;;;;22.75;37.88;101586.23;1723477;81;98414;-64
2022/08/07 11:25:06;;;;;;;2.55;1.42;;;;;;;22.95;37.85;101582.81;1717278;82;27477;-65
2022/08/07 11:27:43;;;;;;;1.83;1.23;;;;;;;23.24;37.76;101581.82;1726756;82;98547;-65
2022/08/07 11:30:19;;;;;;;3.12;1.40;;;;;;;23.49;37.49;101576.53;1726173;82;25774;-65
2022/08/07 11:32:53;;;;;;;2.05;1.35;;;;;;;23.60;37.17;101578.78;1717507;82;98565;-65
2022/08/07 11:35:33;;;;;;;3.25;1.37;;;;;;;23.72;37.14;101571.42;1696927;83;25858;-65
2022/08/07 11:38:26;;;;;;;2.05;1.10;;;;;;;23.84;36.90;101564.91;1686844;83;98797;-64
2022/08/07 11:41:18;;;;;;;3.45;1.00;;;;;;;23.83;36.33;101570.52;1694494;82;25821;-65
2022/08/07 11:44:15;;;;;;;5.80;1.57;;;;;;;23.82;36.04;101564.17;1719730;81;25893;-65
2022/08/07 11:46:52;;;;;;;2.02;1.10;;;;;;;23.66;35.80;101558.25;1696705;83;25820;-65
2022/08/07 11:49:50;;;;;;;2.20;1.40;;;;;;;23.56;35.77;101555.41;1696451;83;26109;-65
2022/08/07 11:52:46;;;;;;;6.35;1.35;;;;;;;23.52;35.63;101555.26;1708428;83;98776;-66
2022/08/07 11:55:29;;;;;;;3.05;1.40;;;;;;;23.58;35.66;101551.17;1685298;83;25807;-64
2022/08/07 11:58:15;;;;;;;5.92;1.60;;;;;;;23.62;35.61;101559.50;1685744;83;98690;-65
2022/08/07 12:01:32;;;;;;;1.52;1.40;;;;;;;23.62;35.36;101556.27;1684157;84;25807;-65
2022/08/07 12:04:19;;;;;;;2.05;1.22;;;;;;;23.68;35.42;101549.91;1680868;84;98585;-65